sensor_id;sensor_type;location;lat;lon;timestamp;temperature;humidity
51615;DHT22;37695;52.960;6.188;2023-07-16T00:02:03;17.00;99.90
51615;DHT22;37695;52.960;6.188;2023-07-16T00:04:29;17.10;99.90
51615;DHT22;37695;52.960;6.188;2023-07-16T00:06:55;17.10;99.90
51615;DHT22;37695;52.960;6.188;2023-07-16T00:09:20;17.00;99.90
51615;DHT22;37695;52.960;6.188;2023-07-16T00:11:46;17.00;99.90
51615;DHT22;37695;52.960;6.188;2023-07-16T00:14:11;17.00;99.90
51615;DHT22;37695;52.960;6.188;2023-07-16T00:16:37;17.00;99.90
51615;DHT22;37695;52.960;6.188;2023-07-16T00:19:03;17.00;99.90
51615;DHT22;37695;52.960;6.188;2023-07-16T00:21:28;17.00;99.90
51615;DHT22;37695;52.960;6.188;2023-07-16T00:23:54;17.00;99.90
51615;DHT22;37695;52.960;6.188;2023-07-16T00:26:21;17.00;99.90
51615;DHT22;37695;52.960;6.188;2023-07-16T00:28:47;17.00;99.90
51615;DHT22;37695;52.960;6.188;2023-07-16T00:31:12;17.00;99.90
51615;DHT22;37695;52.960;6.188;2023-07-16T00:33:38;17.00;99.90
51615;DHT22;37695;52.960;6.188;2023-07-16T00:36:03;17.00;99.90
51615;DHT22;37695;52.960;6.188;2023-07-16T00:38:29;17.00;99.90
51615;DHT22;37695;52.960;6.188;2023-07-16T00:40:56;17.00;99.90
51615;DHT22;37695;52.960;6.188;2023-07-16T00:43:21;17.00;99.90
51615;DHT22;37695;52.960;6.188;2023-07-16T00:45:47;17.00;99.90
51615;DHT22;37695;52.960;6.188;2023-07-16T00:48:13;17.10;99.90
51615;DHT22;37695;52.960;6.188;2023-07-16T00:50:40;17.10;99.90
51615;DHT22;37695;52.960;6.188;2023-07-16T00:53:06;17.10;99.90
51615;DHT22;37695;52.960;6.188;2023-07-16T00:55:34;17.10;99.90
51615;DHT22;37695;52.960;6.188;2023-07-16T00:58:03;17.10;99.90
51615;DHT22;37695;52.960;6.188;2023-07-16T01:00:34;17.10;99.90
51615;DHT22;37695;52.960;6.188;2023-07-16T01:03:01;17.10;99.90
51615;DHT22;37695;52.960;6.188;2023-07-16T01:05:34;17.10;99.90
51615;DHT22;37695;52.960;6.188;2023-07-16T01:08:04;17.10;99.90
51615;DHT22;37695;52.960;6.188;2023-07-16T01:10:31;17.10;99.90
51615;DHT22;37695;52.960;6.188;2023-07-16T01:12:57;17.00;99.90
51615;DHT22;37695;52.960;6.188;2023-07-16T01:15:24;17.10;99.90
51615;DHT22;37695;52.960;6.188;2023-07-16T01:17:49;17.00;99.90
51615;DHT22;37695;52.960;6.188;2023-07-16T01:20:15;17.00;99.90
51615;DHT22;37695;52.960;6.188;2023-07-16T01:28:27;17.00;99.90
51615;DHT22;37695;52.960;6.188;2023-07-16T01:30:58;17.00;99.90
51615;DHT22;37695;52.960;6.188;2023-07-16T01:33:25;17.00;99.90
51615;DHT22;37695;52.960;6.188;2023-07-16T01:35:51;16.90;99.90
51615;DHT22;37695;52.960;6.188;2023-07-16T01:38:17;16.90;99.90
51615;DHT22;37695;52.960;6.188;2023-07-16T01:40:44;16.90;99.90
51615;DHT22;37695;52.960;6.188;2023-07-16T01:43:09;16.90;99.90
51615;DHT22;37695;52.960;6.188;2023-07-16T01:45:35;16.80;99.90
51615;DHT22;37695;52.960;6.188;2023-07-16T01:48:14;16.80;99.90
51615;DHT22;37695;52.960;6.188;2023-07-16T01:50:41;16.80;99.90
51615;DHT22;37695;52.960;6.188;2023-07-16T01:53:07;16.70;99.90
51615;DHT22;37695;52.960;6.188;2023-07-16T01:55:33;16.70;99.90
51615;DHT22;37695;52.960;6.188;2023-07-16T01:57:58;16.70;99.90
51615;DHT22;37695;52.960;6.188;2023-07-16T02:00:24;16.70;99.90
51615;DHT22;37695;52.960;6.188;2023-07-16T02:02:49;16.70;99.90
51615;DHT22;37695;52.960;6.188;2023-07-16T02:05:16;16.70;99.90
51615;DHT22;37695;52.960;6.188;2023-07-16T02:07:41;16.70;99.90
51615;DHT22;37695;52.960;6.188;2023-07-16T02:10:07;16.70;99.90
51615;DHT22;37695;52.960;6.188;2023-07-16T02:12:33;16.70;99.90
51615;DHT22;37695;52.960;6.188;2023-07-16T02:14:58;16.80;99.90
51615;DHT22;37695;52.960;6.188;2023-07-16T02:17:24;16.80;99.90
51615;DHT22;37695;52.960;6.188;2023-07-16T02:19:49;16.70;99.90
51615;DHT22;37695;52.960;6.188;2023-07-16T02:22:15;16.80;99.90
51615;DHT22;37695;52.960;6.188;2023-07-16T02:24:40;16.70;99.90
51615;DHT22;37695;52.960;6.188;2023-07-16T02:27:06;16.70;99.90
51615;DHT22;37695;52.960;6.188;2023-07-16T02:29:32;16.80;99.90
51615;DHT22;37695;52.960;6.188;2023-07-16T02:31:57;16.70;99.90
51615;DHT22;37695;52.960;6.188;2023-07-16T02:34:23;16.70;99.90
51615;DHT22;37695;52.960;6.188;2023-07-16T02:36:48;16.70;99.90
51615;DHT22;37695;52.960;6.188;2023-07-16T02:39:14;16.70;99.90
51615;DHT22;37695;52.960;6.188;2023-07-16T02:41:39;16.70;99.90
51615;DHT22;37695;52.960;6.188;2023-07-16T02:44:05;16.70;99.90
51615;DHT22;37695;52.960;6.188;2023-07-16T02:46:31;16.70;99.90
51615;DHT22;37695;52.960;6.188;2023-07-16T02:48:57;16.70;99.90
51615;DHT22;37695;52.960;6.188;2023-07-16T02:51:22;16.70;99.90
51615;DHT22;37695;52.960;6.188;2023-07-16T02:53:48;16.70;99.90
51615;DHT22;37695;52.960;6.188;2023-07-16T02:56:13;16.70;99.90
51615;DHT22;37695;52.960;6.188;2023-07-16T02:58:39;16.70;99.90
51615;DHT22;37695;52.960;6.188;2023-07-16T03:01:04;16.70;99.90
51615;DHT22;37695;52.960;6.188;2023-07-16T03:03:30;16.70;99.90
51615;DHT22;37695;52.960;6.188;2023-07-16T03:05:55;16.70;99.90
51615;DHT22;37695;52.960;6.188;2023-07-16T03:08:21;16.70;99.90
51615;DHT22;37695;52.960;6.188;2023-07-16T03:10:48;16.70;99.90
51615;DHT22;37695;52.960;6.188;2023-07-16T03:13:13;16.70;99.90
51615;DHT22;37695;52.960;6.188;2023-07-16T03:15:39;16.60;99.90
51615;DHT22;37695;52.960;6.188;2023-07-16T03:18:04;16.70;99.90
51615;DHT22;37695;52.960;6.188;2023-07-16T03:20:30;16.70;99.90
51615;DHT22;37695;52.960;6.188;2023-07-16T03:22:56;16.70;99.90
51615;DHT22;37695;52.960;6.188;2023-07-16T03:25:21;16.60;99.90
51615;DHT22;37695;52.960;6.188;2023-07-16T03:27:47;16.60;99.90
51615;DHT22;37695;52.960;6.188;2023-07-16T03:30:12;16.60;99.90
51615;DHT22;37695;52.960;6.188;2023-07-16T03:32:38;16.60;99.90
51615;DHT22;37695;52.960;6.188;2023-07-16T03:35:04;16.60;99.90
51615;DHT22;37695;52.960;6.188;2023-07-16T03:37:29;16.60;99.90
51615;DHT22;37695;52.960;6.188;2023-07-16T03:39:55;16.60;99.90
51615;DHT22;37695;52.960;6.188;2023-07-16T03:42:20;16.60;99.90
51615;DHT22;37695;52.960;6.188;2023-07-16T03:44:47;16.60;99.90
51615;DHT22;37695;52.960;6.188;2023-07-16T03:47:13;16.60;99.90
51615;DHT22;37695;52.960;6.188;2023-07-16T03:49:38;16.60;99.90
51615;DHT22;37695;52.960;6.188;2023-07-16T03:52:05;16.60;99.90
51615;DHT22;37695;52.960;6.188;2023-07-16T03:54:31;16.60;99.90
51615;DHT22;37695;52.960;6.188;2023-07-16T03:56:56;16.60;99.90
51615;DHT22;37695;52.960;6.188;2023-07-16T03:59:22;16.50;99.90
51615;DHT22;37695;52.960;6.188;2023-07-16T04:01:47;16.60;99.90
51615;DHT22;37695;52.960;6.188;2023-07-16T04:04:13;16.60;99.90
51615;DHT22;37695;52.960;6.188;2023-07-16T04:06:38;16.60;99.90
51615;DHT22;37695;52.960;6.188;2023-07-16T04:09:04;16.60;99.90
51615;DHT22;37695;52.960;6.188;2023-07-16T04:11:30;16.60;99.90
51615;DHT22;37695;52.960;6.188;2023-07-16T04:13:55;16.60;99.90
51615;DHT22;37695;52.960;6.188;2023-07-16T04:16:21;16.60;99.90
51615;DHT22;37695;52.960;6.188;2023-07-16T04:18:46;16.60;99.90
51615;DHT22;37695;52.960;6.188;2023-07-16T04:21:12;16.60;99.90
51615;DHT22;37695;52.960;6.188;2023-07-16T04:23:37;16.60;99.90
51615;DHT22;37695;52.960;6.188;2023-07-16T04:26:03;16.60;99.90
51615;DHT22;37695;52.960;6.188;2023-07-16T04:28:28;16.70;99.90
51615;DHT22;37695;52.960;6.188;2023-07-16T04:30:54;16.70;99.90
51615;DHT22;37695;52.960;6.188;2023-07-16T04:33:19;16.80;99.90
51615;DHT22;37695;52.960;6.188;2023-07-16T04:35:45;16.70;99.90
51615;DHT22;37695;52.960;6.188;2023-07-16T04:38:10;16.80;99.90
51615;DHT22;37695;52.960;6.188;2023-07-16T04:40:36;16.80;99.90
51615;DHT22;37695;52.960;6.188;2023-07-16T04:43:01;16.80;99.90
51615;DHT22;37695;52.960;6.188;2023-07-16T04:45:27;16.80;99.90
51615;DHT22;37695;52.960;6.188;2023-07-16T04:47:53;16.80;99.90
51615;DHT22;37695;52.960;6.188;2023-07-16T04:50:19;16.80;99.90
51615;DHT22;37695;52.960;6.188;2023-07-16T04:52:45;16.90;99.90
51615;DHT22;37695;52.960;6.188;2023-07-16T04:55:10;16.90;99.90
51615;DHT22;37695;52.960;6.188;2023-07-16T04:57:37;17.00;99.90
51615;DHT22;37695;52.960;6.188;2023-07-16T05:00:03;17.00;99.90
51615;DHT22;37695;52.960;6.188;2023-07-16T05:02:31;17.00;99.90
51615;DHT22;37695;52.960;6.188;2023-07-16T05:04:57;17.10;99.90
51615;DHT22;37695;52.960;6.188;2023-07-16T05:07:22;17.20;99.90
51615;DHT22;37695;52.960;6.188;2023-07-16T05:09:48;17.20;99.90
51615;DHT22;37695;52.960;6.188;2023-07-16T05:12:13;17.20;99.90
51615;DHT22;37695;52.960;6.188;2023-07-16T05:14:44;17.30;99.90
51615;DHT22;37695;52.960;6.188;2023-07-16T05:17:11;17.30;99.90
51615;DHT22;37695;52.960;6.188;2023-07-16T05:19:37;17.30;99.90
51615;DHT22;37695;52.960;6.188;2023-07-16T05:22:02;17.30;99.90
51615;DHT22;37695;52.960;6.188;2023-07-16T05:24:28;17.30;99.90
51615;DHT22;37695;52.960;6.188;2023-07-16T05:26:53;17.30;99.90
51615;DHT22;37695;52.960;6.188;2023-07-16T05:29:20;17.40;99.90
51615;DHT22;37695;52.960;6.188;2023-07-16T05:31:45;17.40;99.90
51615;DHT22;37695;52.960;6.188;2023-07-16T05:34:12;17.50;99.90
51615;DHT22;37695;52.960;6.188;2023-07-16T05:36:37;17.50;99.90
51615;DHT22;37695;52.960;6.188;2023-07-16T05:39:03;17.40;99.90
51615;DHT22;37695;52.960;6.188;2023-07-16T05:41:28;17.50;99.90
51615;DHT22;37695;52.960;6.188;2023-07-16T05:43:54;17.40;99.90
51615;DHT22;37695;52.960;6.188;2023-07-16T05:46:19;17.50;99.90
51615;DHT22;37695;52.960;6.188;2023-07-16T05:48:45;17.50;99.90
51615;DHT22;37695;52.960;6.188;2023-07-16T05:51:10;17.60;99.90
51615;DHT22;37695;52.960;6.188;2023-07-16T05:53:36;17.60;99.90
51615;DHT22;37695;52.960;6.188;2023-07-16T05:56:02;17.70;99.90
51615;DHT22;37695;52.960;6.188;2023-07-16T05:58:27;17.70;99.90
51615;DHT22;37695;52.960;6.188;2023-07-16T06:00:53;17.80;99.90
51615;DHT22;37695;52.960;6.188;2023-07-16T06:03:18;17.80;99.90
51615;DHT22;37695;52.960;6.188;2023-07-16T06:05:44;17.90;99.90
51615;DHT22;37695;52.960;6.188;2023-07-16T06:08:09;17.90;99.90
51615;DHT22;37695;52.960;6.188;2023-07-16T06:10:35;17.90;99.90
51615;DHT22;37695;52.960;6.188;2023-07-16T06:13:00;18.10;99.90
51615;DHT22;37695;52.960;6.188;2023-07-16T06:15:26;18.20;99.90
51615;DHT22;37695;52.960;6.188;2023-07-16T06:17:51;18.20;99.90
51615;DHT22;37695;52.960;6.188;2023-07-16T06:20:17;18.20;99.90
51615;DHT22;37695;52.960;6.188;2023-07-16T06:22:43;18.20;99.90
51615;DHT22;37695;52.960;6.188;2023-07-16T06:25:08;18.20;99.90
51615;DHT22;37695;52.960;6.188;2023-07-16T06:27:36;18.30;99.90
51615;DHT22;37695;52.960;6.188;2023-07-16T06:30:02;18.30;99.90
51615;DHT22;37695;52.960;6.188;2023-07-16T06:32:27;18.20;99.90
51615;DHT22;37695;52.960;6.188;2023-07-16T06:34:53;18.30;99.90
51615;DHT22;37695;52.960;6.188;2023-07-16T06:37:18;18.30;99.90
51615;DHT22;37695;52.960;6.188;2023-07-16T06:39:44;18.30;99.90
51615;DHT22;37695;52.960;6.188;2023-07-16T06:42:09;18.30;99.90
51615;DHT22;37695;52.960;6.188;2023-07-16T06:44:35;18.30;99.90
51615;DHT22;37695;52.960;6.188;2023-07-16T06:47:00;18.40;99.90
51615;DHT22;37695;52.960;6.188;2023-07-16T06:49:26;18.30;99.90
51615;DHT22;37695;52.960;6.188;2023-07-16T06:51:52;18.40;99.90
51615;DHT22;37695;52.960;6.188;2023-07-16T06:54:17;18.50;99.90
51615;DHT22;37695;52.960;6.188;2023-07-16T06:56:43;18.50;99.90
51615;DHT22;37695;52.960;6.188;2023-07-16T06:59:09;18.50;99.90
51615;DHT22;37695;52.960;6.188;2023-07-16T07:01:34;18.50;99.90
51615;DHT22;37695;52.960;6.188;2023-07-16T07:04:00;18.60;99.90
51615;DHT22;37695;52.960;6.188;2023-07-16T07:06:25;18.60;99.90
51615;DHT22;37695;52.960;6.188;2023-07-16T07:08:51;18.70;99.90
51615;DHT22;37695;52.960;6.188;2023-07-16T07:11:16;18.70;99.90
51615;DHT22;37695;52.960;6.188;2023-07-16T07:13:42;18.70;99.90
51615;DHT22;37695;52.960;6.188;2023-07-16T07:16:08;18.70;99.90
51615;DHT22;37695;52.960;6.188;2023-07-16T07:18:34;18.80;99.90
51615;DHT22;37695;52.960;6.188;2023-07-16T07:20:59;18.80;99.90
51615;DHT22;37695;52.960;6.188;2023-07-16T07:23:25;18.90;99.90
51615;DHT22;37695;52.960;6.188;2023-07-16T07:25:51;19.00;99.90
51615;DHT22;37695;52.960;6.188;2023-07-16T07:28:18;19.00;99.90
51615;DHT22;37695;52.960;6.188;2023-07-16T07:30:44;19.20;99.90
51615;DHT22;37695;52.960;6.188;2023-07-16T07:33:10;19.30;99.90
51615;DHT22;37695;52.960;6.188;2023-07-16T07:35:35;19.20;99.90
51615;DHT22;37695;52.960;6.188;2023-07-16T07:38:01;19.20;99.90
51615;DHT22;37695;52.960;6.188;2023-07-16T07:40:26;19.30;99.90
51615;DHT22;37695;52.960;6.188;2023-07-16T07:42:52;19.20;99.90
51615;DHT22;37695;52.960;6.188;2023-07-16T07:45:18;19.20;99.90
51615;DHT22;37695;52.960;6.188;2023-07-16T07:47:43;19.10;99.90
51615;DHT22;37695;52.960;6.188;2023-07-16T07:50:09;19.10;99.90
51615;DHT22;37695;52.960;6.188;2023-07-16T07:52:35;19.10;99.90
51615;DHT22;37695;52.960;6.188;2023-07-16T07:55:00;19.00;99.90
51615;DHT22;37695;52.960;6.188;2023-07-16T07:57:26;19.00;99.90
51615;DHT22;37695;52.960;6.188;2023-07-16T07:59:51;18.90;99.90
51615;DHT22;37695;52.960;6.188;2023-07-16T08:02:21;18.90;99.90
51615;DHT22;37695;52.960;6.188;2023-07-16T08:04:50;18.80;99.90
51615;DHT22;37695;52.960;6.188;2023-07-16T08:07:16;18.70;99.90
51615;DHT22;37695;52.960;6.188;2023-07-16T08:09:42;18.80;99.90
51615;DHT22;37695;52.960;6.188;2023-07-16T08:12:07;18.80;99.90
51615;DHT22;37695;52.960;6.188;2023-07-16T08:14:33;18.80;99.90
51615;DHT22;37695;52.960;6.188;2023-07-16T08:16:59;18.90;99.90
51615;DHT22;37695;52.960;6.188;2023-07-16T08:19:24;18.90;99.90
51615;DHT22;37695;52.960;6.188;2023-07-16T08:21:50;19.10;99.90
51615;DHT22;37695;52.960;6.188;2023-07-16T08:24:15;19.50;99.90
51615;DHT22;37695;52.960;6.188;2023-07-16T08:26:41;19.80;99.90
51615;DHT22;37695;52.960;6.188;2023-07-16T08:29:06;20.20;99.90
51615;DHT22;37695;52.960;6.188;2023-07-16T08:31:32;20.30;99.90
51615;DHT22;37695;52.960;6.188;2023-07-16T08:33:57;20.20;99.90
51615;DHT22;37695;52.960;6.188;2023-07-16T08:36:23;20.20;99.90
51615;DHT22;37695;52.960;6.188;2023-07-16T08:38:48;20.30;99.90
51615;DHT22;37695;52.960;6.188;2023-07-16T08:41:14;20.40;99.90
51615;DHT22;37695;52.960;6.188;2023-07-16T08:43:40;20.60;99.90
51615;DHT22;37695;52.960;6.188;2023-07-16T08:46:07;20.80;99.90
51615;DHT22;37695;52.960;6.188;2023-07-16T08:48:33;20.80;99.90
51615;DHT22;37695;52.960;6.188;2023-07-16T08:51:01;20.80;99.90
51615;DHT22;37695;52.960;6.188;2023-07-16T08:53:27;20.80;99.90
51615;DHT22;37695;52.960;6.188;2023-07-16T08:55:53;20.80;99.90
51615;DHT22;37695;52.960;6.188;2023-07-16T08:58:19;20.80;99.90
51615;DHT22;37695;52.960;6.188;2023-07-16T09:00:48;20.70;99.90
51615;DHT22;37695;52.960;6.188;2023-07-16T09:03:14;20.50;99.90
51615;DHT22;37695;52.960;6.188;2023-07-16T09:05:42;20.30;99.90
51615;DHT22;37695;52.960;6.188;2023-07-16T09:08:08;20.10;99.90
51615;DHT22;37695;52.960;6.188;2023-07-16T09:10:33;20.10;99.90
51615;DHT22;37695;52.960;6.188;2023-07-16T09:12:59;20.00;99.90
51615;DHT22;37695;52.960;6.188;2023-07-16T09:15:28;20.20;99.90
51615;DHT22;37695;52.960;6.188;2023-07-16T09:17:54;20.40;99.90
51615;DHT22;37695;52.960;6.188;2023-07-16T09:20:21;20.40;99.90
51615;DHT22;37695;52.960;6.188;2023-07-16T09:22:49;20.40;99.90
51615;DHT22;37695;52.960;6.188;2023-07-16T09:25:15;20.20;99.90
51615;DHT22;37695;52.960;6.188;2023-07-16T09:27:41;20.20;99.90
51615;DHT22;37695;52.960;6.188;2023-07-16T09:30:07;20.20;99.90
51615;DHT22;37695;52.960;6.188;2023-07-16T09:32:39;20.20;99.90
51615;DHT22;37695;52.960;6.188;2023-07-16T09:35:14;20.40;99.90
51615;DHT22;37695;52.960;6.188;2023-07-16T09:37:44;20.40;99.90
51615;DHT22;37695;52.960;6.188;2023-07-16T09:40:11;20.60;99.90
51615;DHT22;37695;52.960;6.188;2023-07-16T09:42:38;20.60;99.90
51615;DHT22;37695;52.960;6.188;2023-07-16T09:45:12;20.60;99.90
51615;DHT22;37695;52.960;6.188;2023-07-16T09:47:38;20.60;99.90
51615;DHT22;37695;52.960;6.188;2023-07-16T09:50:04;20.50;99.90
51615;DHT22;37695;52.960;6.188;2023-07-16T09:52:32;20.60;99.90
51615;DHT22;37695;52.960;6.188;2023-07-16T09:55:01;20.70;99.90
51615;DHT22;37695;52.960;6.188;2023-07-16T09:57:30;20.80;99.90
51615;DHT22;37695;52.960;6.188;2023-07-16T09:59:58;20.90;99.90
51615;DHT22;37695;52.960;6.188;2023-07-16T10:02:25;21.00;99.90
51615;DHT22;37695;52.960;6.188;2023-07-16T10:04:51;21.00;99.90
51615;DHT22;37695;52.960;6.188;2023-07-16T10:07:24;21.20;99.90
51615;DHT22;37695;52.960;6.188;2023-07-16T10:09:56;21.30;99.90
51615;DHT22;37695;52.960;6.188;2023-07-16T10:12:23;21.20;99.90
51615;DHT22;37695;52.960;6.188;2023-07-16T10:14:58;20.90;99.90
51615;DHT22;37695;52.960;6.188;2023-07-16T10:17:27;20.70;99.90
51615;DHT22;37695;52.960;6.188;2023-07-16T10:20:01;20.50;99.90
51615;DHT22;37695;52.960;6.188;2023-07-16T10:25:05;20.60;99.90
51615;DHT22;37695;52.960;6.188;2023-07-16T10:27:32;20.80;99.90
51615;DHT22;37695;52.960;6.188;2023-07-16T10:30:02;21.00;99.90
51615;DHT22;37695;52.960;6.188;2023-07-16T10:32:29;20.90;99.90
51615;DHT22;37695;52.960;6.188;2023-07-16T10:34:55;20.80;99.90
51615;DHT22;37695;52.960;6.188;2023-07-16T10:37:21;20.90;99.90
51615;DHT22;37695;52.960;6.188;2023-07-16T10:39:48;21.20;99.90
51615;DHT22;37695;52.960;6.188;2023-07-16T10:42:16;21.30;99.90
51615;DHT22;37695;52.960;6.188;2023-07-16T10:44:42;21.50;99.90
51615;DHT22;37695;52.960;6.188;2023-07-16T10:47:08;21.50;99.90
51615;DHT22;37695;52.960;6.188;2023-07-16T10:49:34;21.70;99.90
51615;DHT22;37695;52.960;6.188;2023-07-16T10:52:01;21.70;99.90
51615;DHT22;37695;52.960;6.188;2023-07-16T10:54:26;21.60;99.90
51615;DHT22;37695;52.960;6.188;2023-07-16T10:56:52;21.50;99.90
51615;DHT22;37695;52.960;6.188;2023-07-16T10:59:18;21.30;99.90
51615;DHT22;37695;52.960;6.188;2023-07-16T11:01:44;21.20;99.90
51615;DHT22;37695;52.960;6.188;2023-07-16T11:04:09;21.00;99.90
51615;DHT22;37695;52.960;6.188;2023-07-16T11:06:35;20.90;99.90
51615;DHT22;37695;52.960;6.188;2023-07-16T11:09:10;20.90;99.90
51615;DHT22;37695;52.960;6.188;2023-07-16T11:11:36;21.30;99.90
51615;DHT22;37695;52.960;6.188;2023-07-16T11:14:06;21.30;99.90
51615;DHT22;37695;52.960;6.188;2023-07-16T11:16:38;21.30;99.90
51615;DHT22;37695;52.960;6.188;2023-07-16T11:19:04;21.20;99.90
51615;DHT22;37695;52.960;6.188;2023-07-16T11:21:34;21.00;99.90
51615;DHT22;37695;52.960;6.188;2023-07-16T11:24:13;20.90;99.90
51615;DHT22;37695;52.960;6.188;2023-07-16T11:26:40;20.80;99.90
51615;DHT22;37695;52.960;6.188;2023-07-16T11:29:14;20.60;99.90
51615;DHT22;37695;52.960;6.188;2023-07-16T11:31:40;20.40;99.90
51615;DHT22;37695;52.960;6.188;2023-07-16T11:34:15;20.20;99.90
51615;DHT22;37695;52.960;6.188;2023-07-16T11:36:41;20.20;99.90
51615;DHT22;37695;52.960;6.188;2023-07-16T11:39:07;20.30;99.90
51615;DHT22;37695;52.960;6.188;2023-07-16T11:41:32;20.30;99.90
51615;DHT22;37695;52.960;6.188;2023-07-16T11:44:00;20.50;99.90
51615;DHT22;37695;52.960;6.188;2023-07-16T11:46:31;20.70;99.90
51615;DHT22;37695;52.960;6.188;2023-07-16T11:48:57;20.80;99.90
51615;DHT22;37695;52.960;6.188;2023-07-16T11:51:23;20.80;99.90
51615;DHT22;37695;52.960;6.188;2023-07-16T11:53:48;20.70;99.90
51615;DHT22;37695;52.960;6.188;2023-07-16T11:56:14;20.60;99.90
51615;DHT22;37695;52.960;6.188;2023-07-16T11:58:39;20.50;99.90
51615;DHT22;37695;52.960;6.188;2023-07-16T12:01:05;20.30;99.90
51615;DHT22;37695;52.960;6.188;2023-07-16T12:03:30;20.10;99.90
51615;DHT22;37695;52.960;6.188;2023-07-16T12:05:56;20.20;99.90
51615;DHT22;37695;52.960;6.188;2023-07-16T12:08:21;20.70;99.90
51615;DHT22;37695;52.960;6.188;2023-07-16T12:10:47;20.90;99.90
51615;DHT22;37695;52.960;6.188;2023-07-16T12:13:13;20.80;99.90
51615;DHT22;37695;52.960;6.188;2023-07-16T12:15:38;20.70;99.90
51615;DHT22;37695;52.960;6.188;2023-07-16T12:18:04;20.70;99.90
51615;DHT22;37695;52.960;6.188;2023-07-16T12:20:29;20.60;99.90
51615;DHT22;37695;52.960;6.188;2023-07-16T12:22:55;20.70;99.90
51615;DHT22;37695;52.960;6.188;2023-07-16T12:25:20;20.90;99.90
51615;DHT22;37695;52.960;6.188;2023-07-16T12:27:46;21.00;99.90
51615;DHT22;37695;52.960;6.188;2023-07-16T12:30:12;21.20;99.90
51615;DHT22;37695;52.960;6.188;2023-07-16T12:32:37;21.20;99.90
51615;DHT22;37695;52.960;6.188;2023-07-16T12:35:03;21.10;99.90
51615;DHT22;37695;52.960;6.188;2023-07-16T12:37:30;21.00;99.90
51615;DHT22;37695;52.960;6.188;2023-07-16T12:39:55;21.00;99.90
51615;DHT22;37695;52.960;6.188;2023-07-16T12:42:21;20.90;99.90
51615;DHT22;37695;52.960;6.188;2023-07-16T12:44:47;20.70;99.90
51615;DHT22;37695;52.960;6.188;2023-07-16T12:47:12;20.60;99.90
51615;DHT22;37695;52.960;6.188;2023-07-16T12:49:38;20.60;99.90
51615;DHT22;37695;52.960;6.188;2023-07-16T12:52:04;20.60;99.90
51615;DHT22;37695;52.960;6.188;2023-07-16T12:54:29;20.60;99.90
51615;DHT22;37695;52.960;6.188;2023-07-16T12:56:55;20.90;99.90
51615;DHT22;37695;52.960;6.188;2023-07-16T12:59:20;21.20;99.90
51615;DHT22;37695;52.960;6.188;2023-07-16T13:01:46;21.50;99.90
51615;DHT22;37695;52.960;6.188;2023-07-16T13:04:11;21.40;99.90
51615;DHT22;37695;52.960;6.188;2023-07-16T13:06:37;21.30;99.90
51615;DHT22;37695;52.960;6.188;2023-07-16T13:09:02;21.20;99.90
51615;DHT22;37695;52.960;6.188;2023-07-16T13:11:30;21.40;99.90
51615;DHT22;37695;52.960;6.188;2023-07-16T13:13:56;21.10;99.90
51615;DHT22;37695;52.960;6.188;2023-07-16T13:16:22;21.20;99.90
51615;DHT22;37695;52.960;6.188;2023-07-16T13:18:47;21.10;99.90
51615;DHT22;37695;52.960;6.188;2023-07-16T13:21:13;21.10;99.90
51615;DHT22;37695;52.960;6.188;2023-07-16T13:23:38;21.20;99.90
51615;DHT22;37695;52.960;6.188;2023-07-16T13:26:04;21.30;99.90
51615;DHT22;37695;52.960;6.188;2023-07-16T13:28:29;21.50;99.90
51615;DHT22;37695;52.960;6.188;2023-07-16T13:30:55;21.50;99.60
51615;DHT22;37695;52.960;6.188;2023-07-16T13:33:20;21.60;99.40
51615;DHT22;37695;52.960;6.188;2023-07-16T13:35:46;21.50;98.90
51615;DHT22;37695;52.960;6.188;2023-07-16T13:38:12;21.40;98.90
51615;DHT22;37695;52.960;6.188;2023-07-16T13:40:38;21.50;98.70
51615;DHT22;37695;52.960;6.188;2023-07-16T13:43:03;21.50;98.60
51615;DHT22;37695;52.960;6.188;2023-07-16T13:45:29;21.60;99.00
51615;DHT22;37695;52.960;6.188;2023-07-16T13:47:54;21.60;99.70
51615;DHT22;37695;52.960;6.188;2023-07-16T13:50:20;21.50;99.90
51615;DHT22;37695;52.960;6.188;2023-07-16T13:52:46;21.70;99.90
51615;DHT22;37695;52.960;6.188;2023-07-16T13:55:12;21.70;99.90
51615;DHT22;37695;52.960;6.188;2023-07-16T13:57:37;21.60;99.90
51615;DHT22;37695;52.960;6.188;2023-07-16T14:00:03;21.60;99.90
51615;DHT22;37695;52.960;6.188;2023-07-16T14:02:30;21.70;99.60
51615;DHT22;37695;52.960;6.188;2023-07-16T14:04:55;21.50;99.40
51615;DHT22;37695;52.960;6.188;2023-07-16T14:07:22;21.60;99.30
51615;DHT22;37695;52.960;6.188;2023-07-16T14:09:48;21.80;99.30
51615;DHT22;37695;52.960;6.188;2023-07-16T14:12:14;21.80;98.70
51615;DHT22;37695;52.960;6.188;2023-07-16T14:14:40;21.90;98.70
51615;DHT22;37695;52.960;6.188;2023-07-16T14:17:05;21.80;98.10
51615;DHT22;37695;52.960;6.188;2023-07-16T14:19:31;21.80;97.80
51615;DHT22;37695;52.960;6.188;2023-07-16T14:21:56;21.90;98.10
51615;DHT22;37695;52.960;6.188;2023-07-16T14:24:22;22.00;98.20
51615;DHT22;37695;52.960;6.188;2023-07-16T14:26:47;22.00;97.80
51615;DHT22;37695;52.960;6.188;2023-07-16T14:29:14;21.90;97.60
51615;DHT22;37695;52.960;6.188;2023-07-16T14:31:40;21.80;97.20
51615;DHT22;37695;52.960;6.188;2023-07-16T14:34:06;21.70;97.10
51615;DHT22;37695;52.960;6.188;2023-07-16T14:36:32;21.70;97.30
51615;DHT22;37695;52.960;6.188;2023-07-16T14:38:57;21.50;97.10
51615;DHT22;37695;52.960;6.188;2023-07-16T14:41:23;21.40;97.20
51615;DHT22;37695;52.960;6.188;2023-07-16T14:43:48;21.40;97.20
51615;DHT22;37695;52.960;6.188;2023-07-16T14:46:16;21.20;97.50
51615;DHT22;37695;52.960;6.188;2023-07-16T14:48:45;21.30;97.50
51615;DHT22;37695;52.960;6.188;2023-07-16T14:51:11;21.40;97.60
51615;DHT22;37695;52.960;6.188;2023-07-16T14:53:37;21.40;97.30
51615;DHT22;37695;52.960;6.188;2023-07-16T14:56:03;21.50;97.20
51615;DHT22;37695;52.960;6.188;2023-07-16T14:58:33;21.50;97.50
51615;DHT22;37695;52.960;6.188;2023-07-16T15:01:02;21.40;97.50
51615;DHT22;37695;52.960;6.188;2023-07-16T15:03:30;21.50;97.90
51615;DHT22;37695;52.960;6.188;2023-07-16T15:05:57;21.50;98.10
51615;DHT22;37695;52.960;6.188;2023-07-16T15:08:23;21.60;98.10
51615;DHT22;37695;52.960;6.188;2023-07-16T15:10:49;21.60;98.10
51615;DHT22;37695;52.960;6.188;2023-07-16T15:13:14;21.50;98.40
51615;DHT22;37695;52.960;6.188;2023-07-16T15:15:40;21.40;98.30
51615;DHT22;37695;52.960;6.188;2023-07-16T15:18:12;21.40;98.30
51615;DHT22;37695;52.960;6.188;2023-07-16T15:20:37;21.30;98.40
51615;DHT22;37695;52.960;6.188;2023-07-16T15:23:03;21.20;98.20
51615;DHT22;37695;52.960;6.188;2023-07-16T15:25:28;21.20;98.60
51615;DHT22;37695;52.960;6.188;2023-07-16T15:27:54;21.00;98.60
51615;DHT22;37695;52.960;6.188;2023-07-16T15:30:19;21.00;98.60
51615;DHT22;37695;52.960;6.188;2023-07-16T15:32:46;21.10;98.60